sensor_id;sensor_type;location;lat;lon;timestamp;pressure;altitude;pressure_sealevel;temperature;humidity
9721;BME280;4899;42.644;23.366;2022-12-07T00:02:14;94194.59;;;3.68;100.00
9721;BME280;4899;42.644;23.366;2022-12-07T00:04:39;94197.13;;;3.68;100.00
9721;BME280;4899;42.644;23.366;2022-12-07T00:07:05;94226.81;;;3.83;100.00
9721;BME280;4899;42.644;23.366;2022-12-07T00:09:30;94212.38;;;3.73;100.00
9721;BME280;4899;42.644;23.366;2022-12-07T00:11:56;94226.06;;;3.82;100.00
9721;BME280;4899;42.644;23.366;2022-12-07T00:14:21;94219.94;;;3.83;100.00
9721;BME280;4899;42.644;23.366;2022-12-07T00:16:49;94219.94;;;3.83;100.00
9721;BME280;4899;42.644;23.366;2022-12-07T00:19:15;94200.16;;;3.75;100.00
9721;BME280;4899;42.644;23.366;2022-12-07T00:21:42;94195.34;;;3.68;100.00
9721;BME280;4899;42.644;23.366;2022-12-07T00:24:09;94205.47;;;3.79;100.00
9721;BME280;4899;42.644;23.366;2022-12-07T00:26:37;94203.47;;;3.76;100.00
9721;BME280;4899;42.644;23.366;2022-12-07T00:29:09;94205.72;;;3.82;100.00
9721;BME280;4899;42.644;23.366;2022-12-07T00:31:37;94204.41;;;3.85;100.00
9721;BME280;4899;42.644;23.366;2022-12-07T00:34:07;94211.28;;;3.84;100.00
9721;BME280;4899;42.644;23.366;2022-12-07T00:36:33;94200.94;;;3.70;100.00
9721;BME280;4899;42.644;23.366;2022-12-07T00:38:59;94195.13;;;3.65;100.00
9721;BME280;4899;42.644;23.366;2022-12-07T00:41:26;94218.47;;;3.77;100.00
9721;BME280;4899;42.644;23.366;2022-12-07T00:43:52;94220.25;;;3.71;100.00
9721;BME280;4899;42.644;23.366;2022-12-07T00:46:19;94216.72;;;3.73;100.00
9721;BME280;4899;42.644;23.366;2022-12-07T00:48:45;94201.47;;;3.73;100.00
9721;BME280;4899;42.644;23.366;2022-12-07T00:51:13;94199.16;;;3.71;100.00
9721;BME280;4899;42.644;23.366;2022-12-07T00:53:39;94185.19;;;3.68;100.00
9721;BME280;4899;42.644;23.366;2022-12-07T00:56:11;94191.50;;;3.76;100.00
9721;BME280;4899;42.644;23.366;2022-12-07T00:58:36;94194.59;;;3.73;100.00
9721;BME280;4899;42.644;23.366;2022-12-07T01:01:03;94167.25;;;3.50;100.00
9721;BME280;4899;42.644;23.366;2022-12-07T01:03:29;94190.56;;;3.62;100.00
9721;BME280;4899;42.644;23.366;2022-12-07T01:05:55;94205.28;;;3.65;100.00
9721;BME280;4899;42.644;23.366;2022-12-07T01:08:21;94190.63;;;3.52;100.00
9721;BME280;4899;42.644;23.366;2022-12-07T01:10:47;94192.69;;;3.50;100.00
9721;BME280;4899;42.644;23.366;2022-12-07T01:13:14;94211.44;;;3.59;100.00
9721;BME280;4899;42.644;23.366;2022-12-07T01:15:41;94195.16;;;3.60;100.00
9721;BME280;4899;42.644;23.366;2022-12-07T01:18:06;94202.03;;;3.59;100.00
9721;BME280;4899;42.644;23.366;2022-12-07T01:20:31;94195.69;;;3.57;100.00
9721;BME280;4899;42.644;23.366;2022-12-07T01:22:57;94144.97;;;3.31;100.00
9721;BME280;4899;42.644;23.366;2022-12-07T01:25:22;94170.06;;;3.48;100.00
9721;BME280;4899;42.644;23.366;2022-12-07T01:27:48;94184.94;;;3.65;100.00
9721;BME280;4899;42.644;23.366;2022-12-07T01:30:13;94163.69;;;3.51;100.00
9721;BME280;4899;42.644;23.366;2022-12-07T01:32:39;94178.31;;;3.69;100.00
9721;BME280;4899;42.644;23.366;2022-12-07T01:35:05;94194.06;;;3.71;100.00
9721;BME280;4899;42.644;23.366;2022-12-07T01:37:34;94180.63;;;3.65;100.00
9721;BME280;4899;42.644;23.366;2022-12-07T01:40:00;94160.63;;;3.54;100.00
9721;BME280;4899;42.644;23.366;2022-12-07T01:42:26;94182.94;;;3.62;100.00
9721;BME280;4899;42.644;23.366;2022-12-07T01:47:50;94168.06;;;3.40;100.00
9721;BME280;4899;42.644;23.366;2022-12-07T01:50:18;94185.50;;;3.57;100.00
9721;BME280;4899;42.644;23.366;2022-12-07T01:52:48;94185.22;;;3.63;100.00
9721;BME280;4899;42.644;23.366;2022-12-07T01:55:14;94185.22;;;3.63;100.00
9721;BME280;4899;42.644;23.366;2022-12-07T01:57:43;94159.38;;;3.46;100.00
9721;BME280;4899;42.644;23.366;2022-12-07T02:00:11;94180.41;;;3.62;100.00
9721;BME280;4899;42.644;23.366;2022-12-07T02:02:41;94153.78;;;3.49;100.00
9721;BME280;4899;42.644;23.366;2022-12-07T02:05:08;94146.44;;;3.48;100.00
9721;BME280;4899;42.644;23.366;2022-12-07T02:07:36;94165.44;;;3.55;100.00
9721;BME280;4899;42.644;23.366;2022-12-07T02:12:42;94133.19;;;3.46;100.00
9721;BME280;4899;42.644;23.366;2022-12-07T02:15:10;94149.44;;;3.55;100.00
9721;BME280;4899;42.644;23.366;2022-12-07T02:17:46;94159.28;;;3.61;100.00
9721;BME280;4899;42.644;23.366;2022-12-07T02:20:19;94169.47;;;3.61;100.00
9721;BME280;4899;42.644;23.366;2022-12-07T02:30:52;94133.81;;;3.27;100.00
9721;BME280;4899;42.644;23.366;2022-12-07T02:33:31;94126.16;;;3.32;100.00
9721;BME280;4899;42.644;23.366;2022-12-07T02:36:03;94155.56;;;3.49;100.00
9721;BME280;4899;42.644;23.366;2022-12-07T02:41:12;94099.88;;;3.08;100.00
9721;BME280;4899;42.644;23.366;2022-12-07T02:43:44;94152.00;;;3.50;100.00
9721;BME280;4899;42.644;23.366;2022-12-07T02:46:14;94149.72;;;3.48;100.00
9721;BME280;4899;42.644;23.366;2022-12-07T02:48:43;94152.78;;;3.45;100.00
9721;BME280;4899;42.644;23.366;2022-12-07T02:51:08;94133.06;;;3.27;100.00
9721;BME280;4899;42.644;23.366;2022-12-07T02:53:36;94152.59;;;3.31;100.00
9721;BME280;4899;42.644;23.366;2022-12-07T02:56:07;94149.06;;;3.27;100.00
9721;BME280;4899;42.644;23.366;2022-12-07T02:58:46;94161.97;;;3.36;100.00
9721;BME280;4899;42.644;23.366;2022-12-07T03:03:44;94138.16;;;3.27;100.00
9721;BME280;4899;42.644;23.366;2022-12-07T03:06:28;94106.97;;;3.11;100.00
9721;BME280;4899;42.644;23.366;2022-12-07T03:09:17;94134.59;;;3.28;100.00
9721;BME280;4899;42.644;23.366;2022-12-07T03:11:49;94123.94;;;3.26;100.00
9721;BME280;4899;42.644;23.366;2022-12-07T03:14:24;94129.00;;;3.26;100.00
9721;BME280;4899;42.644;23.366;2022-12-07T03:16:57;94123.94;;;3.26;100.00
9721;BME280;4899;42.644;23.366;2022-12-07T03:19:26;94123.16;;;3.25;100.00
9721;BME280;4899;42.644;23.366;2022-12-07T03:22:05;94120.09;;;3.28;100.00
9721;BME280;4899;42.644;23.366;2022-12-07T03:24:38;94123.44;;;3.19;100.00
9721;BME280;4899;42.644;23.366;2022-12-07T03:27:09;94121.47;;;3.05;100.00
9721;BME280;4899;42.644;23.366;2022-12-07T03:29:42;94108.56;;;2.92;100.00
9721;BME280;4899;42.644;23.366;2022-12-07T03:32:25;94122.53;;;2.94;100.00
9721;BME280;4899;42.644;23.366;2022-12-07T03:37:56;94128.38;;;3.00;100.00
9721;BME280;4899;42.644;23.366;2022-12-07T03:40:37;94132.66;;;3.04;100.00
9721;BME280;4899;42.644;23.366;2022-12-07T03:43:05;94136.47;;;3.07;100.00
9721;BME280;4899;42.644;23.366;2022-12-07T03:48:03;94127.03;;;3.13;100.00
9721;BME280;4899;42.644;23.366;2022-12-07T03:50:44;94136.66;;;3.16;100.00
9721;BME280;4899;42.644;23.366;2022-12-07T03:53:17;94125.50;;;3.12;100.00
9721;BME280;4899;42.644;23.366;2022-12-07T03:55:44;94114.13;;;3.04;100.00
9721;BME280;4899;42.644;23.366;2022-12-07T03:58:17;94122.44;;;3.15;100.00
9721;BME280;4899;42.644;23.366;2022-12-07T04:00:44;94117.81;;;3.22;100.00
9721;BME280;4899;42.644;23.366;2022-12-07T04:03:10;94112.78;;;3.17;100.00
9721;BME280;4899;42.644;23.366;2022-12-07T04:05:36;94102.16;;;3.09;100.00
9721;BME280;4899;42.644;23.366;2022-12-07T04:08:02;94118.63;;;3.17;100.00
9721;BME280;4899;42.644;23.366;2022-12-07T04:10:27;94116.88;;;3.13;100.00
9721;BME280;4899;42.644;23.366;2022-12-07T04:12:53;94111.09;;;3.02;100.00
9721;BME280;4899;42.644;23.366;2022-12-07T04:15:18;94111.63;;;2.99;100.00
9721;BME280;4899;42.644;23.366;2022-12-07T04:17:44;94110.59;;;2.95;100.00
9721;BME280;4899;42.644;23.366;2022-12-07T04:20:10;94094.63;;;2.89;100.00
9721;BME280;4899;42.644;23.366;2022-12-07T04:22:35;94090.56;;;2.88;100.00
9721;BME280;4899;42.644;23.366;2022-12-07T04:25:01;94059.66;;;2.76;100.00
9721;BME280;4899;42.644;23.366;2022-12-07T04:27:26;94120.97;;;3.08;100.00
9721;BME280;4899;42.644;23.366;2022-12-07T04:29:52;94088.78;;;2.89;100.00
9721;BME280;4899;42.644;23.366;2022-12-07T04:32:20;94119.22;;;2.94;100.00
9721;BME280;4899;42.644;23.366;2022-12-07T04:34:45;94094.44;;;2.75;100.00
9721;BME280;4899;42.644;23.366;2022-12-07T04:37:12;94102.06;;;2.75;100.00
9721;BME280;4899;42.644;23.366;2022-12-07T04:39:39;94098.25;;;2.73;100.00
9721;BME280;4899;42.644;23.366;2022-12-07T04:42:04;94130.47;;;2.83;100.00
9721;BME280;4899;42.644;23.366;2022-12-07T04:44:30;94101.56;;;2.68;100.00
9721;BME280;4899;42.644;23.366;2022-12-07T04:46:56;94132.22;;;2.87;100.00
9721;BME280;4899;42.644;23.366;2022-12-07T04:49:22;94130.44;;;2.88;100.00
9721;BME280;4899;42.644;23.366;2022-12-07T04:51:48;94144.16;;;2.87;100.00
9721;BME280;4899;42.644;23.366;2022-12-07T04:54:15;94136.03;;;2.85;100.00
9721;BME280;4899;42.644;23.366;2022-12-07T04:56:41;94130.22;;;2.84;100.00
9721;BME280;4899;42.644;23.366;2022-12-07T04:59:07;94112.25;;;2.60;100.00
9721;BME280;4899;42.644;23.366;2022-12-07T05:01:33;94115.28;;;2.67;100.00
9721;BME280;4899;42.644;23.366;2022-12-07T05:03:59;94105.66;;;2.59;100.00
9721;BME280;4899;42.644;23.366;2022-12-07T05:06:25;94134.28;;;2.80;100.00
9721;BME280;4899;42.644;23.366;2022-12-07T05:08:50;94129.25;;;2.75;100.00
9721;BME280;4899;42.644;23.366;2022-12-07T05:11:16;94130.00;;;2.70;100.00
9721;BME280;4899;42.644;23.366;2022-12-07T05:14:01;94111.47;;;2.65;100.00
9721;BME280;4899;42.644;23.366;2022-12-07T05:16:27;94124.41;;;2.73;100.00
9721;BME280;4899;42.644;23.366;2022-12-07T05:18:53;94111.50;;;2.60;100.00
9721;BME280;4899;42.644;23.366;2022-12-07T05:21:19;94126.72;;;2.65;100.00
9721;BME280;4899;42.644;23.366;2022-12-07T05:23:45;94112.81;;;2.52;100.00
9721;BME280;4899;42.644;23.366;2022-12-07T05:26:10;94117.09;;;2.62;100.00
9721;BME280;4899;42.644;23.366;2022-12-07T05:28:36;94125.19;;;2.69;100.00
9721;BME280;4899;42.644;23.366;2022-12-07T05:31:01;94125.41;;;2.72;100.00
9721;BME280;4899;42.644;23.366;2022-12-07T05:33:27;94121.59;;;2.80;100.00
9721;BME280;4899;42.644;23.366;2022-12-07T05:35:52;94145.19;;;2.86;100.00
9721;BME280;4899;42.644;23.366;2022-12-07T05:38:18;94140.88;;;2.86;100.00
9721;BME280;4899;42.644;23.366;2022-12-07T05:40:43;94123.09;;;2.86;100.00
9721;BME280;4899;42.644;23.366;2022-12-07T05:43:09;94116.44;;;2.95;100.00
9721;BME280;4899;42.644;23.366;2022-12-07T05:45:34;94099.97;;;2.88;100.00
9721;BME280;4899;42.644;23.366;2022-12-07T05:47:59;94094.88;;;2.88;100.00
9721;BME280;4899;42.644;23.366;2022-12-07T05:50:25;94115.13;;;3.08;100.00
9721;BME280;4899;42.644;23.366;2022-12-07T05:52:50;94129.78;;;3.21;100.00
9721;BME280;4899;42.644;23.366;2022-12-07T05:55:16;94108.94;;;3.19;100.00
9721;BME280;4899;42.644;23.366;2022-12-07T05:57:41;94082.84;;;3.08;100.00
9721;BME280;4899;42.644;23.366;2022-12-07T06:00:26;94111.91;;;3.36;100.00
9721;BME280;4899;42.644;23.366;2022-12-07T06:02:52;94090.59;;;3.32;100.00
9721;BME280;4899;42.644;23.366;2022-12-07T06:05:17;94109.72;;;3.59;100.00
9721;BME280;4899;42.644;23.366;2022-12-07T06:07:43;94103.66;;;3.55;100.00
9721;BME280;4899;42.644;23.366;2022-12-07T06:10:08;94118.78;;;3.75;100.00
9721;BME280;4899;42.644;23.366;2022-12-07T06:12:34;94123.31;;;3.78;100.00
9721;BME280;4899;42.644;23.366;2022-12-07T06:14:59;94118.19;;;3.83;100.00
9721;BME280;4899;42.644;23.366;2022-12-07T06:17:25;94127.84;;;3.86;100.00
9721;BME280;4899;42.644;23.366;2022-12-07T06:19:50;94103.25;;;3.77;100.00
9721;BME280;4899;42.644;23.366;2022-12-07T06:22:17;94134.63;;;3.96;100.00
9721;BME280;4899;42.644;23.366;2022-12-07T06:24:43;94132.47;;;3.79;100.00
9721;BME280;4899;42.644;23.366;2022-12-07T06:27:09;94122.34;;;3.74;100.00
9721;BME280;4899;42.644;23.366;2022-12-07T06:29:35;94107.19;;;3.59;100.00
9721;BME280;4899;42.644;23.366;2022-12-07T06:32:02;94138.59;;;3.78;100.00
9721;BME280;4899;42.644;23.366;2022-12-07T06:34:27;94132.97;;;3.81;100.00
9721;BME280;4899;42.644;23.366;2022-12-07T06:36:53;94141.25;;;3.97;100.00
9721;BME280;4899;42.644;23.366;2022-12-07T06:39:25;94132.31;;;3.99;100.00
9721;BME280;4899;42.644;23.366;2022-12-07T06:41:51;94125.88;;;4.07;100.00
9721;BME280;4899;42.644;23.366;2022-12-07T06:44:18;94114.31;;;4.20;100.00
9721;BME280;4899;42.644;23.366;2022-12-07T06:46:44;94152.72;;;4.52;100.00
9721;BME280;4899;42.644;23.366;2022-12-07T06:49:09;94139.50;;;4.50;100.00
9721;BME280;4899;42.644;23.366;2022-12-07T06:51:35;94135.72;;;4.43;100.00
9721;BME280;4899;42.644;23.366;2022-12-07T06:54:03;94151.16;;;4.56;100.00
9721;BME280;4899;42.644;23.366;2022-12-07T06:56:29;94128.09;;;4.43;100.00
9721;BME280;4899;42.644;23.366;2022-12-07T06:58:54;94146.69;;;4.43;100.00
9721;BME280;4899;42.644;23.366;2022-12-07T07:01:20;94136.53;;;4.38;100.00
9721;BME280;4899;42.644;23.366;2022-12-07T07:03:46;94158.38;;;4.44;100.00
9721;BME280;4899;42.644;23.366;2022-12-07T07:06:12;94154.84;;;4.40;100.00
9721;BME280;4899;42.644;23.366;2022-12-07T07:08:38;94133.16;;;4.19;100.00
9721;BME280;4899;42.644;23.366;2022-12-07T07:11:05;94149.31;;;4.33;100.00
9721;BME280;4899;42.644;23.366;2022-12-07T07:13:31;94161.19;;;4.43;100.00
9721;BME280;4899;42.644;23.366;2022-12-07T07:15:56;94149.72;;;4.45;100.00
9721;BME280;4899;42.644;23.366;2022-12-07T07:18:22;94152.72;;;4.52;100.00
9721;BME280;4899;42.644;23.366;2022-12-07T07:20:47;94132.69;;;4.41;100.00
9721;BME280;4899;42.644;23.366;2022-12-07T07:23:13;94146.09;;;4.51;100.00
9721;BME280;4899;42.644;23.366;2022-12-07T07:25:38;94149.91;;;4.54;100.00
9721;BME280;4899;42.644;23.366;2022-12-07T07:28:04;94166.38;;;4.61;100.00
9721;BME280;4899;42.644;23.366;2022-12-07T07:30:30;94108.66;;;4.28;100.00
9721;BME280;4899;42.644;23.366;2022-12-07T07:33:01;94141.72;;;4.57;100.00
9721;BME280;4899;42.644;23.366;2022-12-07T07:35:28;94142.97;;;4.59;100.00
9721;BME280;4899;42.644;23.366;2022-12-07T07:37:54;94167.25;;;4.76;100.00
9721;BME280;4899;42.644;23.366;2022-12-07T07:40:20;94168.78;;;4.77;100.00
9721;BME280;4899;42.644;23.366;2022-12-07T07:42:52;94165.91;;;4.83;100.00
9721;BME280;4899;42.644;23.366;2022-12-07T07:45:20;94169.06;;;4.94;100.00
9721;BME280;4899;42.644;23.366;2022-12-07T07:47:47;94151.31;;;4.89;100.00
9721;BME280;4899;42.644;23.366;2022-12-07T07:50:12;94158.56;;;5.01;100.00
9721;BME280;4899;42.644;23.366;2022-12-07T07:52:38;94158.16;;;5.12;100.00
9721;BME280;4899;42.644;23.366;2022-12-07T07:55:04;94155.03;;;5.20;100.00
9721;BME280;4899;42.644;23.366;2022-12-07T07:57:30;94144.22;;;5.29;100.00
9721;BME280;4899;42.644;23.366;2022-12-07T07:59:55;94142.63;;;5.33;100.00
9721;BME280;4899;42.644;23.366;2022-12-07T08:02:21;94158.78;;;5.47;100.00
9721;BME280;4899;42.644;23.366;2022-12-07T08:04:47;94163.16;;;5.60;100.00
9721;BME280;4899;42.644;23.366;2022-12-07T08:07:14;94146.13;;;5.55;100.00
9721;BME280;4899;42.644;23.366;2022-12-07T08:09:40;94150.47;;;5.55;100.00
9721;BME280;4899;42.644;23.366;2022-12-07T08:12:05;94150.97;;;5.57;100.00
9721;BME280;4899;42.644;23.366;2022-12-07T08:14:31;94150.41;;;5.60;100.00
9721;BME280;4899;42.644;23.366;2022-12-07T08:16:57;94146.41;;;5.54;100.00
9721;BME280;4899;42.644;23.366;2022-12-07T08:19:22;94150.09;;;5.48;100.00
9721;BME280;4899;42.644;23.366;2022-12-07T08:21:48;94144.97;;;5.48;100.00
9721;BME280;4899;42.644;23.366;2022-12-07T08:24:13;94162.53;;;5.68;100.00
9721;BME280;4899;42.644;23.366;2022-12-07T08:26:40;94140.47;;;5.59;100.00
9721;BME280;4899;42.644;23.366;2022-12-07T08:29:05;94144.19;;;5.66;100.00
9721;BME280;4899;42.644;23.366;2022-12-07T08:31:31;94147.22;;;5.68;100.00
9721;BME280;4899;42.644;23.366;2022-12-07T08:33:56;94143.72;;;5.64;100.00
9721;BME280;4899;42.644;23.366;2022-12-07T08:36:22;94154.41;;;5.66;100.00
9721;BME280;4899;42.644;23.366;2022-12-07T08:38:49;94129.03;;;5.56;100.00
9721;BME280;4899;42.644;23.366;2022-12-07T08:41:14;94154.81;;;5.73;100.00
9721;BME280;4899;42.644;23.366;2022-12-07T08:43:40;94132.56;;;5.60;100.00
9721;BME280;4899;42.644;23.366;2022-12-07T08:46:11;94152.28;;;5.73;100.00
9721;BME280;4899;42.644;23.366;2022-12-07T08:49:02;94141.78;;;5.75;100.00
9721;BME280;4899;42.644;23.366;2022-12-07T08:51:28;94139.34;;;5.83;100.00
9721;BME280;4899;42.644;23.366;2022-12-07T08:53:55;94133.69;;;5.86;100.00
9721;BME280;4899;42.644;23.366;2022-12-07T08:56:21;94139.97;;;5.94;100.00
9721;BME280;4899;42.644;23.366;2022-12-07T08:58:48;94128.47;;;5.97;100.00
9721;BME280;4899;42.644;23.366;2022-12-07T09:01:13;94128.78;;;6.09;100.00
9721;BME280;4899;42.644;23.366;2022-12-07T09:03:39;94116.78;;;6.09;100.00
9721;BME280;4899;42.644;23.366;2022-12-07T09:06:05;94130.41;;;6.18;100.00
9721;BME280;4899;42.644;23.366;2022-12-07T09:08:34;94118.56;;;6.09;100.00
9721;BME280;4899;42.644;23.366;2022-12-07T09:11:00;94124.06;;;6.16;100.00
9721;BME280;4899;42.644;23.366;2022-12-07T09:13:25;94120.47;;;6.17;100.00
9721;BME280;4899;42.644;23.366;2022-12-07T09:15:51;94125.22;;;6.24;100.00
9721;BME280;4899;42.644;23.366;2022-12-07T09:18:16;94119.09;;;6.25;100.00
9721;BME280;4899;42.644;23.366;2022-12-07T09:20:41;94116.81;;;6.37;100.00
9721;BME280;4899;42.644;23.366;2022-12-07T09:23:07;94108.50;;;6.45;100.00
9721;BME280;4899;42.644;23.366;2022-12-07T09:25:33;94108.97;;;6.61;100.00
9721;BME280;4899;42.644;23.366;2022-12-07T09:27:59;94108.59;;;6.67;100.00
9721;BME280;4899;42.644;23.366;2022-12-07T09:30:25;94083.13;;;6.62;100.00
9721;BME280;4899;42.644;23.366;2022-12-07T09:32:53;94124.41;;;6.83;100.00
9721;BME280;4899;42.644;23.366;2022-12-07T09:35:19;94107.38;;;6.78;100.00
9721;BME280;4899;42.644;23.366;2022-12-07T09:37:45;94082.09;;;6.63;100.00
9721;BME280;4899;42.644;23.366;2022-12-07T09:40:11;94071.78;;;6.82;100.00
9721;BME280;4899;42.644;23.366;2022-12-07T09:42:39;94100.31;;;7.12;100.00
9721;BME280;4899;42.644;23.366;2022-12-07T09:45:22;94103.91;;;7.24;100.00
9721;BME280;4899;42.644;23.366;2022-12-07T09:47:48;94095.72;;;7.36;100.00
9721;BME280;4899;42.644;23.366;2022-12-07T09:50:20;94096.56;;;7.45;100.00
9721;BME280;4899;42.644;23.366;2022-12-07T09:52:47;94093.41;;;7.48;100.00
9721;BME280;4899;42.644;23.366;2022-12-07T09:55:16;94062.91;;;7.38;100.00
9721;BME280;4899;42.644;23.366;2022-12-07T09:57:44;94054.31;;;7.56;100.00
9721;BME280;4899;42.644;23.366;2022-12-07T10:00:13;94088.53;;;7.83;100.00
9721;BME280;4899;42.644;23.366;2022-12-07T10:02:46;94089.69;;;7.99;100.00
9721;BME280;4899;42.644;23.366;2022-12-07T10:05:22;94075.84;;;8.00;100.00
9721;BME280;4899;42.644;23.366;2022-12-07T10:07:49;94071.78;;;8.08;100.00
9721;BME280;4899;42.644;23.366;2022-12-07T10:10:19;94067.06;;;8.23;100.00
9721;BME280;4899;42.644;23.366;2022-12-07T10:12:59;94067.31;;;8.44;100.00
9721;BME280;4899;42.644;23.366;2022-12-07T10:15:54;94072.34;;;8.58;100.00
9721;BME280;4899;42.644;23.366;2022-12-07T10:18:33;94070.28;;;8.77;100.00
9721;BME280;4899;42.644;23.366;2022-12-07T10:23:40;94064.59;;;8.98;100.00
9721;BME280;4899;42.644;23.366;2022-12-07T10:28:50;94062.06;;;9.23;100.00
9721;BME280;4899;42.644;23.366;2022-12-07T10:31:21;94058.59;;;9.45;100.00
9721;BME280;4899;42.644;23.366;2022-12-07T10:33:51;94047.84;;;9.52;100.00
9721;BME280;4899;42.644;23.366;2022-12-07T10:38:47;94041.19;;;9.60;100.00
9721;BME280;4899;42.644;23.366;2022-12-07T10:41:13;94028.53;;;9.46;100.00
9721;BME280;4899;42.644;23.366;2022-12-07T10:43:47;94024.75;;;9.35;100.00
9721;BME280;4899;42.644;23.366;2022-12-07T10:52:19;94041.06;;;8.96;100.00
9721;BME280;4899;42.644;23.366;2022-12-07T10:55:08;94015.81;;;8.72;100.00
9721;BME280;4899;42.644;23.366;2022-12-07T11:00:22;94011.44;;;8.72;100.00
9721;BME280;4899;42.644;23.366;2022-12-07T11:05:45;93994.56;;;8.71;100.00
9721;BME280;4899;42.644;23.366;2022-12-07T11:12:33;93995.63;;;8.70;100.00
9721;BME280;4899;42.644;23.366;2022-12-07T11:17:26;94006.16;;;8.69;100.00
9721;BME280;4899;42.644;23.366;2022-12-07T11:25:32;93978.69;;;8.52;100.00
9721;BME280;4899;42.644;23.366;2022-12-07T11:33:53;93971.03;;;8.69;100.00
9721;BME280;4899;42.644;23.366;2022-12-07T11:36:46;93972.09;;;8.68;100.00
9721;BME280;4899;42.644;23.366;2022-12-07T11:39:36;93963.16;;;8.66;100.00
9721;BME280;4899;42.644;23.366;2022-12-07T11:42:21;93957.88;;;8.62;100.00
9721;BME280;4899;42.644;23.366;2022-12-07T11:47:38;93960.28;;;8.67;100.00
9721;BME280;4899;42.644;23.366;2022-12-07T11:50:33;93965.28;;;8.63;100.00
9721;BME280;4899;42.644;23.366;2022-12-07T11:53:05;93956.38;;;8.61;100.00
9721;BME280;4899;42.644;23.366;2022-12-07T11:58:35;93913.41;;;8.58;100.00
9721;BME280;4899;42.644;23.366;2022-12-07T12:03:53;93918.81;;;8.82;100.00
9721;BME280;4899;42.644;23.366;2022-12-07T12:06:22;93942.66;;;9.09;100.00
9721;BME280;4899;42.644;23.366;2022-12-07T12:14:33;93946.97;;;9.51;100.00
9721;BME280;4899;42.644;23.366;2022-12-07T12:20:03;93928.50;;;9.58;100.00
9721;BME280;4899;42.644;23.366;2022-12-07T12:22:38;93919.56;;;9.73;100.00
9721;BME280;4899;42.644;23.366;2022-12-07T12:25:07;93924.34;;;9.83;100.00
9721;BME280;4899;42.644;23.366;2022-12-07T12:27:46;93916.09;;;10.07;100.00
9721;BME280;4899;42.644;23.366;2022-12-07T12:30:35;93927.16;;;10.58;100.00
9721;BME280;4899;42.644;23.366;2022-12-07T12:35:37;93899.25;;;10.47;100.00
9721;BME280;4899;42.644;23.366;2022-12-07T12:40:50;93901.81;;;11.22;100.00
9721;BME280;4899;42.644;23.366;2022-12-07T13:01:58;93898.69;;;16.89;86.39
9721;BME280;4899;42.644;23.366;2022-12-07T13:04:39;93907.03;;;17.39;84.12
9721;BME280;4899;42.644;23.366;2022-12-07T13:18:42;93914.97;;;19.47;71.75
9721;BME280;4899;42.644;23.366;2022-12-07T13:26:56;93934.06;;;20.57;62.11
9721;BME280;4899;42.644;23.366;2022-12-07T13:31:56;93932.34;;;19.03;66.17
9721;BME280;4899;42.644;23.366;2022-12-07T13:34:36;93931.00;;;19.34;62.89
9721;BME280;4899;42.644;23.366;2022-12-07T13:39:51;93916.16;;;19.60;54.41
9721;BME280;4899;42.644;23.366;2022-12-07T13:42:25;93904.13;;;19.30;52.64
9721;BME280;4899;42.644;23.366;2022-12-07T13:44:51;93910.81;;;18.41;62.11
9721;BME280;4899;42.644;23.366;2022-12-07T13:47:41;93906.78;;;16.84;57.68
9721;BME280;4899;42.644;23.366;2022-12-07T13:50:26;93905.19;;;15.71;66.84
9721;BME280;4899;42.644;23.366;2022-12-07T13:52:55;93895.78;;;15.01;76.81
9721;BME280;4899;42.644;23.366;2022-12-07T13:55:21;93893.66;;;14.33;80.84
9721;BME280;4899;42.644;23.366;2022-12-07T13:57:50;93891.91;;;13.70;84.91
9721;BME280;4899;42.644;23.366;2022-12-07T14:00:19;93876.91;;;13.16;88.69
9721;BME280;4899;42.644;23.366;2022-12-07T14:05:29;93880.41;;;12.40;96.60
9721;BME280;4899;42.644;23.366;2022-12-07T14:10:41;93894.16;;;11.59;100.00
9721;BME280;4899;42.644;23.366;2022-12-07T14:16:03;93893.16;;;10.94;100.00
9721;BME280;4899;42.644;23.366;2022-12-07T14:18:39;93899.38;;;10.72;100.00
9721;BME280;4899;42.644;23.366;2022-12-07T14:21:14;93887.16;;;10.48;100.00
9721;BME280;4899;42.644;23.366;2022-12-07T14:23:41;93907.94;;;10.34;100.00
9721;BME280;4899;42.644;23.366;2022-12-07T14:26:12;93896.09;;;10.12;100.00
9721;BME280;4899;42.644;23.366;2022-12-07T14:28:41;93901.66;;;9.94;100.00
9721;BME280;4899;42.644;23.366;2022-12-07T14:31:11;93901.75;;;9.68;100.00
9721;BME280;4899;42.644;23.366;2022-12-07T14:33:38;93891.28;;;9.35;100.00
9721;BME280;4899;42.644;23.366;2022-12-07T14:36:04;93907.78;;;9.16;100.00
9721;BME280;4899;42.644;23.366;2022-12-07T14:38:29;93889.41;;;8.97;100.00
9721;BME280;4899;42.644;23.366;2022-12-07T14:40:55;93873.75;;;8.73;100.00
9721;BME280;4899;42.644;23.366;2022-12-07T14:43:41;93867.25;;;8.58;100.00
9721;BME280;4899;42.644;23.366;2022-12-07T14:46:07;93857.00;;;8.41;100.00
9721;BME280;4899;42.644;23.366;2022-12-07T14:48:33;93864.84;;;8.36;100.00
9721;BME280;4899;42.644;23.366;2022-12-07T14:50:59;93887.72;;;8.32;100.00
9721;BME280;4899;42.644;23.366;2022-12-07T14:53:29;93882.09;;;8.13;100.00
9721;BME280;4899;42.644;23.366;2022-12-07T14:55:56;93886.16;;;8.05;100.00
9721;BME280;4899;42.644;23.366;2022-12-07T14:58:22;93895.94;;;7.94;100.00
9721;BME280;4899;42.644;23.366;2022-12-07T15:00:47;93895.44;;;7.84;100.00
9721;BME280;4899;42.644;23.366;2022-12-07T15:03:13;93879.84;;;7.54;100.00
9721;BME280;4899;42.644;23.366;2022-12-07T15:05:39;93906.50;;;7.53;100.00
9721;BME280;4899;42.644;23.366;2022-12-07T15:08:05;93903.81;;;7.27;100.00
9721;BME280;4899;42.644;23.366;2022-12-07T15:10:33;93909.84;;;7.31;100.00
9721;BME280;4899;42.644;23.366;2022-12-07T15:13:00;93906.78;;;7.21;100.00
9721;BME280;4899;42.644;23.366;2022-12-07T15:15:47;93882.16;;;7.02;100.00
9721;BME280;4899;42.644;23.366;2022-12-07T15:18:12;93909.56;;;7.10;100.00
9721;BME280;4899;42.644;23.366;2022-12-07T15:20:38;93904.69;;;7.00;100.00
9721;BME280;4899;42.644;23.366;2022-12-07T15:23:04;93913.81;;;6.93;100.00
9721;BME280;4899;42.644;23.366;2022-12-07T15:25:29;93900.63;;;6.77;100.00
9721;BME280;4899;42.644;23.366;2022-12-07T15:27:54;93898.19;;;6.72;100.00
9721;BME280;4899;42.644;23.366;2022-12-07T15:30:20;93902.00;;;6.61;100.00
9721;BME280;4899;42.644;23.366;2022-12-07T15:32:49;93899.38;;;6.52;100.00